Hudsonville, Indiana
Current Conditions -  °F | °C
As of 8:35 AM on Sunday 23 Nov 2014 (Local Time) from KDCY Reporting Station
Broken Clouds Broken Clouds  
Wind Chill: 55°   Ceiling: 4800
Heat Index: 55°   Visibility: 10mi
Dew Point: 44°   Wind: 17mph
Humidity: 67%   Direction: 160°SSE
Pressure: 29.84"   Gusts: 21mph
Location:  38.6251°N, 87.0452°W
Report Text: KDCY 231435Z AUTO 16015G18KT 10SM SCT027 SCT032 BKN048 13/07 A2984 RMK AO2 T01260067
Loading
Personal Weather Stations






























Interactive Weather Map New forecast layout! Learn more

10-Day Weather Forecast

Advertisements
Track Severe Weather on mobile